Lihue, HI

2:16 PM HST on September 16, 2014 (GMT -1000)
Lihue | Change Station
CLOSE
Current Station
Airport
Location: Lihue,
Elevation: 102 ft
Nearby Weather Stations
Active Advisory: High Surf Advisory Active Notice: Record Report

Elev 102 ft 21.98 °N, 159.34 °W | Updated 23 minutes ago

Partly Cloudy
Partly Cloudy
87 °F
Feels Like 93 °F
N
13
Wind Variable Wind from NE

Today
High -- | Low -- °F
--% Chance of Precip.
Yesterday
High -- | Low -- °F
Precip. -- in
6:24 AM 6:39 PM
Last Quarter, 41% visible
Pressure 29.93 in
Visibility 10.0 miles
Clouds Few 1900 ft
Heat Index 93 °F
Dew Point 71 °F
Humidity 59%
Rainfall 0.00 in
Snow Depth Not available.
UV 9 out of 12
Pollen Not available.
Air Quality Not available.
Flu Activity Not available.
METAR PHLI 162353Z 05011KT 10SM FEW019 31/22 A2994 RMK AO2 SLP135 T03060217 10306 20261 58018

More Conditions Fewer Conditions

Pressure 29.93 in
Visibility 10.0 miles
Clouds Few 1900 ft
Heat Index 93 °F
Dew Point 71 °F
Humidity 59%
Rainfall 0.00 in
Snow Depth Not available.
UV 9 out of 12
Pollen Not available.
Air Quality Not available.
Flu Activity Not available.
METAR PHLI 162353Z 05011KT 10SM FEW019 31/22 A2994 RMK AO2 SLP135 T03060217 10306 20261 58018

More Conditions Fewer Conditions

10-Day Weather Forecast

Almanac

Astronomy

Sep. 16, 2014 Rise Set
Actual Time 6:24 AM HST 6:39 PM HST
Civil Twilight 6:02 AM HST 7:01 PM HST
Nautical Twilight 5:36 AM HST 7:27 PM HST
Astronomical Twilight 5:10 AM HST 7:53 PM HST
Moon 12:14 AM HST (9/16) 1:42 PM HST (9/16)
Length of Visible Light 12h 59m
Length of Day
12h 14m
Tomorrow will be 1m 15s shorter.
Last Quarter, 41% of the Moon is Illuminated
Today
Last Quarter
Sep 24
New
Oct 1
First Quarter
Oct 8
Full
Oct 15
Last Quarter

Today's Extremes

State Highs State Lows

Community

WunderPhotos

Upload Photos

1,753,930 photos uploaded!

Nearby

Snow Depth

Station Depth Elevation
No new snow has been reported.

Earthquake Activity

City Distance Mag. Time & Date
No recent earthquake activity has been reported nearby.
Minimum magnitude displayed is 2.5.

Coastal Water Temperatures

Place Temperature
No Stations Reporting

Nearby Weather Stations